createdAt,value
2022-11-16T00:01:28.822Z,980.99
2022-11-16T00:06:28.714Z,980.96
2022-11-16T00:11:28.674Z,980.98
2022-11-16T00:16:28.656Z,980.88
2022-11-16T00:21:28.557Z,980.82
2022-11-16T00:26:28.510Z,980.78
2022-11-16T05:00:24.422Z,980.72
2022-11-16T05:05:24.301Z,980.65
2022-11-16T05:10:24.363Z,980.61
2022-11-16T05:15:31.366Z,980.64
2022-11-16T05:20:24.145Z,980.68
2022-11-16T05:25:24.083Z,980.79
2022-11-16T05:30:24.030Z,980.78
2022-11-16T05:35:23.996Z,980.77
2022-11-16T05:40:23.939Z,980.77
2022-11-16T05:45:23.894Z,980.86
2022-11-16T05:50:23.824Z,980.87
2022-11-16T05:55:23.779Z,980.96
2022-11-16T06:00:23.710Z,981.07
2022-11-16T06:05:23.671Z,981.11
2022-11-16T06:10:23.605Z,981.10
2022-11-16T06:15:23.556Z,981.07
2022-11-16T06:20:23.862Z,981.10
2022-11-16T06:25:23.447Z,981.09
2022-11-16T06:30:23.394Z,981.22
2022-11-16T06:35:23.372Z,981.27
2022-11-16T06:40:23.495Z,981.36
2022-11-16T06:45:23.229Z,981.49
2022-11-16T06:50:23.160Z,981.48
2022-11-16T06:55:23.135Z,981.51
2022-11-16T07:00:23.382Z,981.49
2022-11-16T07:05:23.030Z,981.52
2022-11-16T07:10:22.962Z,981.50
2022-11-16T07:15:22.919Z,981.70
2022-11-16T07:20:22.862Z,981.81
2022-11-16T07:25:22.799Z,981.91
2022-11-16T07:30:22.757Z,981.92
2022-11-16T07:35:22.693Z,982.06
2022-11-16T07:40:22.768Z,982.07
2022-11-16T07:45:22.577Z,982.08
2022-11-16T07:50:22.533Z,982.24
2022-11-16T07:55:22.492Z,982.11
2022-11-16T08:00:22.440Z,982.19
2022-11-16T08:05:22.379Z,982.13
2022-11-16T08:10:22.413Z,982.14
2022-11-16T08:15:22.259Z,982.09
2022-11-16T08:20:22.258Z,982.19
2022-11-16T08:25:22.179Z,982.27
2022-11-16T08:30:22.097Z,982.33
2022-11-16T08:35:22.060Z,982.43
2022-11-16T08:40:22.121Z,982.58
2022-11-16T08:45:21.949Z,982.63
2022-11-16T08:50:21.895Z,982.72
2022-11-16T08:55:21.840Z,982.78
2022-11-16T09:00:21.903Z,982.96
2022-11-16T09:05:21.737Z,982.96
2022-11-16T09:10:21.682Z,982.97
2022-11-16T09:15:21.727Z,982.98
2022-11-16T09:20:21.648Z,982.98
2022-11-16T09:25:21.519Z,983.00
2022-11-16T09:30:21.459Z,982.91
2022-11-16T09:35:21.410Z,982.91
2022-11-16T09:40:21.381Z,983.06
2022-11-16T09:45:21.300Z,982.98
2022-11-16T09:50:21.247Z,983.09
2022-11-16T09:55:21.193Z,983.18
2022-11-16T10:00:21.175Z,983.16
2022-11-16T10:05:21.095Z,983.15
2022-11-16T10:10:21.094Z,983.16
2022-11-16T10:15:21.024Z,983.08
2022-11-16T10:20:23.056Z,983.09
2022-11-16T10:25:20.873Z,982.96
2022-11-16T10:30:20.882Z,982.90
2022-11-16T10:35:20.751Z,982.83
2022-11-16T10:40:20.817Z,982.76
2022-11-16T10:45:20.660Z,982.60
2022-11-16T10:50:20.592Z,982.58
2022-11-16T10:55:20.529Z,982.52
2022-11-16T11:00:22.309Z,982.47
2022-11-16T11:05:20.435Z,982.44
2022-11-16T11:10:20.370Z,982.49
2022-11-16T11:15:25.527Z,982.49
2022-11-16T11:20:21.368Z,982.44
2022-11-16T11:25:20.194Z,982.37
2022-11-16T11:30:20.141Z,982.38
2022-11-16T11:35:20.085Z,982.30
2022-11-16T11:40:20.152Z,982.13
2022-11-16T11:45:19.985Z,981.96
2022-11-16T11:50:19.923Z,981.90
2022-11-16T11:55:19.858Z,981.89
2022-11-16T12:00:19.919Z,981.87
2022-11-16T12:05:19.759Z,981.81
2022-11-16T12:10:19.690Z,981.87
2022-11-16T12:15:19.643Z,981.81
2022-11-16T12:20:19.630Z,981.64
2022-11-16T12:25:19.519Z,981.63
2022-11-16T12:30:19.480Z,981.66
2022-11-16T12:35:19.427Z,981.58
2022-11-16T12:40:19.378Z,981.60
2022-11-16T12:45:19.312Z,981.59
2022-11-16T12:50:19.255Z,981.51
2022-11-16T12:55:25.872Z,981.43
2022-11-16T13:00:19.483Z,981.51
2022-11-16T13:05:19.201Z,981.51
2022-11-16T13:10:19.038Z,981.41
2022-11-16T13:15:18.982Z,981.37
2022-11-16T13:20:19.052Z,981.27
2022-11-16T13:25:18.871Z,981.14
2022-11-16T13:30:18.818Z,981.18
2022-11-16T13:35:18.760Z,981.13
2022-11-16T13:40:18.819Z,981.05
2022-11-16T13:45:18.651Z,981.02
2022-11-16T13:50:18.596Z,981.08
2022-11-16T13:55:18.542Z,981.07
2022-11-16T14:00:18.594Z,980.95
2022-11-16T14:05:18.441Z,980.96
2022-11-16T14:10:18.381Z,980.82
2022-11-16T14:15:18.325Z,980.86
2022-11-16T14:20:22.248Z,980.87
2022-11-16T14:25:18.207Z,980.91
2022-11-16T14:30:18.160Z,980.89
2022-11-16T14:35:18.101Z,980.87
2022-11-16T14:40:18.067Z,980.80
2022-11-16T14:45:18.026Z,980.75
2022-11-16T14:50:17.935Z,980.84
2022-11-16T14:55:17.882Z,980.83
2022-11-16T15:00:18.042Z,980.76
2022-11-16T15:05:17.774Z,980.73
2022-11-16T15:10:17.722Z,980.55
2022-11-16T15:15:17.660Z,980.59
2022-11-16T15:20:17.723Z,980.50
2022-11-16T15:25:17.554Z,980.57
2022-11-16T15:30:17.500Z,980.47
2022-11-16T15:35:17.447Z,980.43
2022-11-16T15:40:17.552Z,980.38
2022-11-16T15:45:17.329Z,980.46
2022-11-16T15:50:17.283Z,980.31
2022-11-16T15:55:17.275Z,980.17
2022-11-16T16:00:17.292Z,980.20
2022-11-16T16:05:22.688Z,980.24
2022-11-16T16:10:18.066Z,980.05
2022-11-16T16:15:17.015Z,980.00
2022-11-16T16:20:16.977Z,979.99
2022-11-16T16:25:16.898Z,979.89
2022-11-16T16:30:16.965Z,979.96
2022-11-16T16:35:16.792Z,979.92
2022-11-16T16:40:16.860Z,979.88
2022-11-16T16:45:16.698Z,979.79
2022-11-16T16:50:16.638Z,979.76
2022-11-16T16:55:16.577Z,979.71
2022-11-16T17:00:16.643Z,979.81
2022-11-16T17:05:16.477Z,979.75
2022-11-16T17:10:16.455Z,979.78
2022-11-16T17:15:19.369Z,979.71
2022-11-16T17:20:16.318Z,979.70
2022-11-16T17:25:16.372Z,979.63
2022-11-16T17:30:16.208Z,979.62
2022-11-16T17:35:16.156Z,979.56
2022-11-16T17:40:16.286Z,979.57
2022-11-16T17:45:16.052Z,979.43
2022-11-16T17:50:15.996Z,979.42
2022-11-16T17:55:15.950Z,979.33
2022-11-16T18:00:15.998Z,979.34
2022-11-16T18:05:15.837Z,979.25
2022-11-16T18:10:19.166Z,979.23
2022-11-16T18:15:28.074Z,979.15
2022-11-16T18:20:16.816Z,979.15
2022-11-16T18:25:15.615Z,979.07
2022-11-16T18:30:15.578Z,979.14
2022-11-16T18:35:15.524Z,979.11
2022-11-16T18:40:15.566Z,979.04
2022-11-16T18:45:15.417Z,979.07
2022-11-16T18:50:21.341Z,979.12
2022-11-16T18:55:16.318Z,979.17
2022-11-16T19:00:15.400Z,979.06
2022-11-16T19:05:15.214Z,979.13
2022-11-16T19:10:15.153Z,979.15
2022-11-16T19:15:15.097Z,978.95
2022-11-16T19:20:15.163Z,978.91
2022-11-16T19:25:14.979Z,978.85
2022-11-16T19:30:14.937Z,978.86
2022-11-16T19:35:14.883Z,978.72
2022-11-16T19:40:14.846Z,978.67
2022-11-16T19:45:14.804Z,978.57
2022-11-16T19:50:14.724Z,978.48
2022-11-16T19:55:14.685Z,978.49
2022-11-16T20:00:14.623Z,978.40
2022-11-16T20:05:14.565Z,978.44
2022-11-16T20:10:14.516Z,978.37
2022-11-16T20:15:14.463Z,978.17
2022-11-16T20:20:14.517Z,978.07
2022-11-16T20:25:14.350Z,977.89
2022-11-16T20:30:14.306Z,977.89
2022-11-16T20:35:18.965Z,977.84
2022-11-16T20:40:15.238Z,977.69
2022-11-16T20:45:14.133Z,977.63
2022-11-16T20:50:14.084Z,977.57
2022-11-16T20:55:14.029Z,977.53
2022-11-16T21:00:14.100Z,977.56
2022-11-16T21:05:13.922Z,977.46
2022-11-16T21:10:13.864Z,977.53
2022-11-16T21:15:13.813Z,977.38
2022-11-16T21:20:26.802Z,977.21
2022-11-16T21:25:14.708Z,977.23
2022-11-16T21:30:13.667Z,977.15
2022-11-16T21:35:13.601Z,977.08
2022-11-16T21:40:13.660Z,976.88
2022-11-16T21:45:13.492Z,976.80
2022-11-16T21:55:14.381Z,976.57
2022-11-16T22:00:13.351Z,976.48
2022-11-16T22:05:13.276Z,976.40
2022-11-16T22:10:13.225Z,976.18
2022-11-16T22:15:13.169Z,976.06
2022-11-16T22:20:13.140Z,976.05
2022-11-16T22:25:13.065Z,975.95
2022-11-16T22:30:13.011Z,975.93
2022-11-16T22:35:12.951Z,975.97
2022-11-16T22:40:17.558Z,975.82
2022-11-16T22:45:13.848Z,975.78
2022-11-16T22:50:12.796Z,975.70
2022-11-16T22:55:12.747Z,975.51
2022-11-16T23:00:12.807Z,975.37
2022-11-16T23:05:12.640Z,975.31
2022-11-16T23:10:12.586Z,975.13
2022-11-16T23:15:12.530Z,975.04
2022-11-16T23:20:17.492Z,974.92
2022-11-16T23:25:13.509Z,974.87
2022-11-16T23:30:13.307Z,974.76
2022-11-16T23:35:12.333Z,974.66
2022-11-16T23:40:12.387Z,974.59
2022-11-16T23:45:12.218Z,974.43
2022-11-16T23:50:12.207Z,974.23
2022-11-16T23:55:12.110Z,974.21
